sensor_id;sensor_type;location;lat;lon;timestamp;P1;P2;P0
26185;PMS7003;20067;48.764;9.176;2024-03-02T00:01:07;21.00;19.50;11.00
26185;PMS7003;20067;48.764;9.176;2024-03-02T00:03:36;23.00;22.75;13.50
26185;PMS7003;20067;48.764;9.176;2024-03-02T00:06:03;21.50;20.00;11.00
26185;PMS7003;20067;48.764;9.176;2024-03-02T00:08:29;21.00;20.50;12.25
26185;PMS7003;20067;48.764;9.176;2024-03-02T00:10:58;22.50;20.50;11.00
26185;PMS7003;20067;48.764;9.176;2024-03-02T00:13:26;22.75;22.50;13.00
26185;PMS7003;20067;48.764;9.176;2024-03-02T00:15:52;27.00;22.25;12.50
26185;PMS7003;20067;48.764;9.176;2024-03-02T00:18:20;22.25;21.50;13.00
26185;PMS7003;20067;48.764;9.176;2024-03-02T00:20:49;23.50;23.50;15.50
26185;PMS7003;20067;48.764;9.176;2024-03-02T00:23:19;23.50;22.50;11.50
26185;PMS7003;20067;48.764;9.176;2024-03-02T00:25:47;24.00;23.25;12.50
26185;PMS7003;20067;48.764;9.176;2024-03-02T00:28:25;21.00;20.00;10.25
26185;PMS7003;20067;48.764;9.176;2024-03-02T00:33:43;21.25;21.25;11.25
26185;PMS7003;20067;48.764;9.176;2024-03-02T00:36:11;21.00;21.00;13.00
26185;PMS7003;20067;48.764;9.176;2024-03-02T00:39:00;16.75;15.00;8.50
26185;PMS7003;20067;48.764;9.176;2024-03-02T00:41:26;25.75;20.25;12.50
26185;PMS7003;20067;48.764;9.176;2024-03-02T00:46:37;29.50;22.50;14.50
26185;PMS7003;20067;48.764;9.176;2024-03-02T00:51:36;26.50;21.75;11.00
26185;PMS7003;20067;48.764;9.176;2024-03-02T00:54:04;18.00;18.00;12.00
26185;PMS7003;20067;48.764;9.176;2024-03-02T00:56:31;22.25;22.25;11.50
26185;PMS7003;20067;48.764;9.176;2024-03-02T00:58:58;25.50;23.50;12.00
26185;PMS7003;20067;48.764;9.176;2024-03-02T01:01:23;25.25;24.50;13.75
26185;PMS7003;20067;48.764;9.176;2024-03-02T01:03:49;19.50;17.75;10.00
26185;PMS7003;20067;48.764;9.176;2024-03-02T01:06:15;24.75;20.00;10.00
26185;PMS7003;20067;48.764;9.176;2024-03-02T01:08:42;21.50;19.50;10.00
26185;PMS7003;20067;48.764;9.176;2024-03-02T01:11:07;28.00;23.00;12.25
26185;PMS7003;20067;48.764;9.176;2024-03-02T01:13:33;20.25;20.25;11.50
26185;PMS7003;20067;48.764;9.176;2024-03-02T01:16:00;20.75;20.00;11.00
26185;PMS7003;20067;48.764;9.176;2024-03-02T01:18:26;20.50;16.50;10.75
26185;PMS7003;20067;48.764;9.176;2024-03-02T01:20:52;21.00;15.75;9.25
26185;PMS7003;20067;48.764;9.176;2024-03-02T01:23:20;21.00;18.00;8.75
26185;PMS7003;20067;48.764;9.176;2024-03-02T01:25:48;21.25;19.75;11.00
26185;PMS7003;20067;48.764;9.176;2024-03-02T01:28:14;25.25;23.25;11.00
26185;PMS7003;20067;48.764;9.176;2024-03-02T01:30:40;20.00;18.00;10.00
26185;PMS7003;20067;48.764;9.176;2024-03-02T01:33:06;24.50;20.50;10.50
26185;PMS7003;20067;48.764;9.176;2024-03-02T01:35:32;21.00;20.25;11.00
26185;PMS7003;20067;48.764;9.176;2024-03-02T01:37:58;16.50;15.25;8.50
26185;PMS7003;20067;48.764;9.176;2024-03-02T01:40:24;21.25;17.75;8.00
26185;PMS7003;20067;48.764;9.176;2024-03-02T01:42:51;19.00;16.25;9.00
26185;PMS7003;20067;48.764;9.176;2024-03-02T01:45:19;19.50;18.50;8.75
26185;PMS7003;20067;48.764;9.176;2024-03-02T01:47:44;17.75;14.50;8.25
26185;PMS7003;20067;48.764;9.176;2024-03-02T01:50:13;19.50;17.00;8.00
26185;PMS7003;20067;48.764;9.176;2024-03-02T01:52:39;18.75;15.50;7.00
26185;PMS7003;20067;48.764;9.176;2024-03-02T01:55:05;21.50;19.50;9.00
26185;PMS7003;20067;48.764;9.176;2024-03-02T01:57:32;18.00;14.50;7.50
26185;PMS7003;20067;48.764;9.176;2024-03-02T01:59:58;26.50;20.00;9.00
26185;PMS7003;20067;48.764;9.176;2024-03-02T02:02:25;18.25;16.50;8.75
26185;PMS7003;20067;48.764;9.176;2024-03-02T02:04:51;19.00;17.50;11.00
26185;PMS7003;20067;48.764;9.176;2024-03-02T02:07:16;25.00;19.75;8.25
26185;PMS7003;20067;48.764;9.176;2024-03-02T02:09:42;23.75;17.50;10.50
26185;PMS7003;20067;48.764;9.176;2024-03-02T02:12:08;16.25;14.50;8.00
26185;PMS7003;20067;48.764;9.176;2024-03-02T02:14:34;16.50;16.00;9.00
26185;PMS7003;20067;48.764;9.176;2024-03-02T02:17:01;18.75;17.50;9.00
26185;PMS7003;20067;48.764;9.176;2024-03-02T02:19:26;21.00;15.75;8.00
26185;PMS7003;20067;48.764;9.176;2024-03-02T02:21:52;24.00;20.50;11.50
26185;PMS7003;20067;48.764;9.176;2024-03-02T02:24:18;19.75;17.00;8.75
26185;PMS7003;20067;48.764;9.176;2024-03-02T02:26:43;20.75;17.25;8.50
26185;PMS7003;20067;48.764;9.176;2024-03-02T02:29:09;20.50;18.25;8.75
26185;PMS7003;20067;48.764;9.176;2024-03-02T02:31:38;18.25;18.00;8.25
26185;PMS7003;20067;48.764;9.176;2024-03-02T02:34:04;19.25;18.00;10.25
26185;PMS7003;20067;48.764;9.176;2024-03-02T02:36:30;16.75;16.25;9.00
26185;PMS7003;20067;48.764;9.176;2024-03-02T02:38:57;25.25;22.25;11.00
26185;PMS7003;20067;48.764;9.176;2024-03-02T02:41:23;22.50;21.00;11.00
26185;PMS7003;20067;48.764;9.176;2024-03-02T02:43:49;20.00;16.00;10.00
26185;PMS7003;20067;48.764;9.176;2024-03-02T02:46:15;20.00;18.25;9.25
26185;PMS7003;20067;48.764;9.176;2024-03-02T02:48:40;22.75;16.00;8.75
26185;PMS7003;20067;48.764;9.176;2024-03-02T02:51:06;23.75;18.75;10.00
26185;PMS7003;20067;48.764;9.176;2024-03-02T02:53:31;18.75;18.00;10.25
26185;PMS7003;20067;48.764;9.176;2024-03-02T02:55:57;20.50;17.50;10.00
26185;PMS7003;20067;48.764;9.176;2024-03-02T02:58:22;21.00;18.00;8.50
26185;PMS7003;20067;48.764;9.176;2024-03-02T03:00:48;18.50;17.50;10.00
26185;PMS7003;20067;48.764;9.176;2024-03-02T03:03:14;26.25;20.25;9.75
26185;PMS7003;20067;48.764;9.176;2024-03-02T03:05:39;20.75;19.50;11.00
26185;PMS7003;20067;48.764;9.176;2024-03-02T03:08:05;23.25;20.25;10.75
26185;PMS7003;20067;48.764;9.176;2024-03-02T03:10:31;21.75;16.25;10.00
26185;PMS7003;20067;48.764;9.176;2024-03-02T03:12:56;30.50;22.00;11.00
26185;PMS7003;20067;48.764;9.176;2024-03-02T03:15:22;27.25;19.50;11.00
26185;PMS7003;20067;48.764;9.176;2024-03-02T03:17:48;18.00;17.00;8.00
26185;PMS7003;20067;48.764;9.176;2024-03-02T03:20:13;20.25;18.50;10.00
26185;PMS7003;20067;48.764;9.176;2024-03-02T03:22:40;17.50;17.50;8.00
26185;PMS7003;20067;48.764;9.176;2024-03-02T03:25:05;19.50;17.50;11.25
26185;PMS7003;20067;48.764;9.176;2024-03-02T03:27:33;22.75;21.25;12.50
26185;PMS7003;20067;48.764;9.176;2024-03-02T03:29:58;23.75;20.00;9.50
26185;PMS7003;20067;48.764;9.176;2024-03-02T03:32:24;19.00;16.00;10.00
26185;PMS7003;20067;48.764;9.176;2024-03-02T03:34:50;23.75;21.75;8.50
26185;PMS7003;20067;48.764;9.176;2024-03-02T03:37:15;19.50;18.25;9.50
26185;PMS7003;20067;48.764;9.176;2024-03-02T03:39:41;21.25;16.75;8.75
26185;PMS7003;20067;48.764;9.176;2024-03-02T03:42:07;21.75;20.00;10.50
26185;PMS7003;20067;48.764;9.176;2024-03-02T03:44:32;24.25;19.50;11.50
26185;PMS7003;20067;48.764;9.176;2024-03-02T03:46:59;23.75;20.75;10.00
26185;PMS7003;20067;48.764;9.176;2024-03-02T03:49:26;20.50;20.00;10.75
26185;PMS7003;20067;48.764;9.176;2024-03-02T03:51:51;19.00;18.00;9.50
26185;PMS7003;20067;48.764;9.176;2024-03-02T03:54:17;23.25;18.00;9.00
26185;PMS7003;20067;48.764;9.176;2024-03-02T03:56:42;20.00;18.00;9.00
26185;PMS7003;20067;48.764;9.176;2024-03-02T03:59:08;21.00;16.75;10.00
26185;PMS7003;20067;48.764;9.176;2024-03-02T04:01:34;18.75;16.50;8.50
26185;PMS7003;20067;48.764;9.176;2024-03-02T04:03:59;21.00;17.25;9.00
26185;PMS7003;20067;48.764;9.176;2024-03-02T04:06:26;19.75;19.00;8.50
26185;PMS7003;20067;48.764;9.176;2024-03-02T04:08:52;23.50;20.00;9.50
26185;PMS7003;20067;48.764;9.176;2024-03-02T04:11:18;26.00;20.00;11.25
26185;PMS7003;20067;48.764;9.176;2024-03-02T04:13:43;22.25;21.00;10.00
26185;PMS7003;20067;48.764;9.176;2024-03-02T04:16:09;19.00;18.00;10.00
26185;PMS7003;20067;48.764;9.176;2024-03-02T04:18:35;19.00;16.50;8.00
26185;PMS7003;20067;48.764;9.176;2024-03-02T04:21:00;22.50;20.50;11.00
26185;PMS7003;20067;48.764;9.176;2024-03-02T04:23:26;23.00;18.00;9.50
26185;PMS7003;20067;48.764;9.176;2024-03-02T04:25:52;18.25;17.25;10.00
26185;PMS7003;20067;48.764;9.176;2024-03-02T04:28:18;17.50;16.00;8.00
26185;PMS7003;20067;48.764;9.176;2024-03-02T04:30:43;22.00;19.00;10.00
26185;PMS7003;20067;48.764;9.176;2024-03-02T04:33:09;20.25;20.00;10.00
26185;PMS7003;20067;48.764;9.176;2024-03-02T04:35:35;26.25;20.25;10.25
26185;PMS7003;20067;48.764;9.176;2024-03-02T04:38:01;22.75;17.00;8.50
26185;PMS7003;20067;48.764;9.176;2024-03-02T04:40:27;22.50;19.00;9.00
26185;PMS7003;20067;48.764;9.176;2024-03-02T04:42:52;25.00;19.75;10.00
26185;PMS7003;20067;48.764;9.176;2024-03-02T04:45:18;19.25;16.25;7.50
26185;PMS7003;20067;48.764;9.176;2024-03-02T04:47:44;26.50;21.25;10.00
26185;PMS7003;20067;48.764;9.176;2024-03-02T04:50:09;19.50;18.00;10.00
26185;PMS7003;20067;48.764;9.176;2024-03-02T04:52:35;22.00;17.75;11.25
26185;PMS7003;20067;48.764;9.176;2024-03-02T04:55:01;23.00;18.50;10.25
26185;PMS7003;20067;48.764;9.176;2024-03-02T04:57:54;21.00;19.00;9.25
26185;PMS7003;20067;48.764;9.176;2024-03-02T05:00:21;15.00;15.00;8.50
26185;PMS7003;20067;48.764;9.176;2024-03-02T05:02:46;21.00;19.50;10.00
26185;PMS7003;20067;48.764;9.176;2024-03-02T05:05:12;17.50;15.00;6.00
26185;PMS7003;20067;48.764;9.176;2024-03-02T05:07:40;23.00;20.75;11.75
26185;PMS7003;20067;48.764;9.176;2024-03-02T05:10:07;18.25;17.00;8.50
26185;PMS7003;20067;48.764;9.176;2024-03-02T05:12:33;20.50;20.00;8.00
26185;PMS7003;20067;48.764;9.176;2024-03-02T05:15:08;19.25;18.50;8.00
26185;PMS7003;20067;48.764;9.176;2024-03-02T05:17:35;20.00;19.25;11.50
26185;PMS7003;20067;48.764;9.176;2024-03-02T05:20:02;21.00;19.75;10.00
26185;PMS7003;20067;48.764;9.176;2024-03-02T05:22:28;22.25;20.00;10.00
26185;PMS7003;20067;48.764;9.176;2024-03-02T05:27:22;22.00;21.00;10.75
26185;PMS7003;20067;48.764;9.176;2024-03-02T05:29:47;24.00;19.25;10.00
26185;PMS7003;20067;48.764;9.176;2024-03-02T05:32:13;23.00;20.50;11.00
26185;PMS7003;20067;48.764;9.176;2024-03-02T05:34:39;29.00;24.25;12.50
26185;PMS7003;20067;48.764;9.176;2024-03-02T05:37:04;26.50;21.50;11.00
26185;PMS7003;20067;48.764;9.176;2024-03-02T05:39:30;21.75;20.25;9.00
26185;PMS7003;20067;48.764;9.176;2024-03-02T05:41:55;21.50;19.00;9.50
26185;PMS7003;20067;48.764;9.176;2024-03-02T05:44:21;23.25;15.00;7.00
26185;PMS7003;20067;48.764;9.176;2024-03-02T05:46:47;22.25;19.75;8.00
26185;PMS7003;20067;48.764;9.176;2024-03-02T05:49:13;23.00;15.50;8.00
26185;PMS7003;20067;48.764;9.176;2024-03-02T05:51:38;30.75;23.50;12.00
26185;PMS7003;20067;48.764;9.176;2024-03-02T05:54:04;21.75;20.00;8.50
26185;PMS7003;20067;48.764;9.176;2024-03-02T05:56:30;19.75;16.50;6.25
26185;PMS7003;20067;48.764;9.176;2024-03-02T05:58:55;24.00;21.50;7.50
26185;PMS7003;20067;48.764;9.176;2024-03-02T06:01:40;15.50;14.00;6.00
26185;PMS7003;20067;48.764;9.176;2024-03-02T06:04:09;22.25;17.00;8.00
26185;PMS7003;20067;48.764;9.176;2024-03-02T06:06:38;25.00;20.25;11.00
26185;PMS7003;20067;48.764;9.176;2024-03-02T06:09:04;28.25;25.00;17.00
26185;PMS7003;20067;48.764;9.176;2024-03-02T06:11:32;26.50;20.50;11.00
26185;PMS7003;20067;48.764;9.176;2024-03-02T06:14:01;22.50;20.75;10.00
26185;PMS7003;20067;48.764;9.176;2024-03-02T06:16:27;22.50;19.75;10.25
26185;PMS7003;20067;48.764;9.176;2024-03-02T06:18:53;19.00;17.00;7.75
26185;PMS7003;20067;48.764;9.176;2024-03-02T06:21:19;22.25;20.75;10.25
26185;PMS7003;20067;48.764;9.176;2024-03-02T06:23:45;23.75;21.50;10.25
26185;PMS7003;20067;48.764;9.176;2024-03-02T06:26:11;20.25;19.25;8.00
26185;PMS7003;20067;48.764;9.176;2024-03-02T06:28:37;18.25;17.25;10.00
26185;PMS7003;20067;48.764;9.176;2024-03-02T06:31:03;21.75;19.25;10.00
26185;PMS7003;20067;48.764;9.176;2024-03-02T06:33:29;23.75;23.25;10.00
26185;PMS7003;20067;48.764;9.176;2024-03-02T06:35:55;23.75;19.75;10.75
26185;PMS7003;20067;48.764;9.176;2024-03-02T06:38:20;20.75;20.50;7.00
26185;PMS7003;20067;48.764;9.176;2024-03-02T06:40:46;28.00;21.50;12.00
26185;PMS7003;20067;48.764;9.176;2024-03-02T06:43:12;25.50;24.25;13.00
26185;PMS7003;20067;48.764;9.176;2024-03-02T06:45:37;21.00;17.25;9.50
26185;PMS7003;20067;48.764;9.176;2024-03-02T06:48:03;25.75;20.50;10.25
26185;PMS7003;20067;48.764;9.176;2024-03-02T06:50:29;20.25;19.25;9.00
26185;PMS7003;20067;48.764;9.176;2024-03-02T06:52:55;19.50;19.50;9.50
26185;PMS7003;20067;48.764;9.176;2024-03-02T06:55:23;19.50;16.75;9.00
26185;PMS7003;20067;48.764;9.176;2024-03-02T06:57:49;20.50;18.00;8.00
26185;PMS7003;20067;48.764;9.176;2024-03-02T07:00:15;24.50;20.00;9.50
26185;PMS7003;20067;48.764;9.176;2024-03-02T07:02:42;21.50;18.25;10.00
26185;PMS7003;20067;48.764;9.176;2024-03-02T07:05:09;24.25;18.00;10.00
26185;PMS7003;20067;48.764;9.176;2024-03-02T07:07:36;26.50;18.00;10.00
26185;PMS7003;20067;48.764;9.176;2024-03-02T07:10:03;26.50;20.00;10.00
26185;PMS7003;20067;48.764;9.176;2024-03-02T07:12:29;24.25;22.50;10.50
26185;PMS7003;20067;48.764;9.176;2024-03-02T07:14:55;26.25;20.00;9.00
26185;PMS7003;20067;48.764;9.176;2024-03-02T07:17:27;22.25;18.50;8.00
26185;PMS7003;20067;48.764;9.176;2024-03-02T07:19:53;21.75;17.25;10.00
26185;PMS7003;20067;48.764;9.176;2024-03-02T07:22:18;37.25;30.25;14.50
26185;PMS7003;20067;48.764;9.176;2024-03-02T07:24:44;20.25;19.00;10.00
26185;PMS7003;20067;48.764;9.176;2024-03-02T07:27:13;23.00;21.50;10.75
26185;PMS7003;20067;48.764;9.176;2024-03-02T07:29:39;20.00;17.25;9.00
26185;PMS7003;20067;48.764;9.176;2024-03-02T07:32:05;19.25;17.00;8.25
26185;PMS7003;20067;48.764;9.176;2024-03-02T07:34:32;25.00;23.00;10.00
26185;PMS7003;20067;48.764;9.176;2024-03-02T07:36:58;20.25;18.00;9.00
26185;PMS7003;20067;48.764;9.176;2024-03-02T07:39:23;21.00;20.25;9.25
26185;PMS7003;20067;48.764;9.176;2024-03-02T07:41:49;22.50;19.75;8.00
26185;PMS7003;20067;48.764;9.176;2024-03-02T07:44:15;18.00;16.00;9.00
26185;PMS7003;20067;48.764;9.176;2024-03-02T07:46:41;18.25;16.50;10.00
26185;PMS7003;20067;48.764;9.176;2024-03-02T07:49:07;24.25;18.75;9.00
26185;PMS7003;20067;48.764;9.176;2024-03-02T07:51:33;16.75;16.00;8.50
26185;PMS7003;20067;48.764;9.176;2024-03-02T07:53:59;17.00;17.00;8.00
26185;PMS7003;20067;48.764;9.176;2024-03-02T07:56:25;17.50;17.50;9.75
26185;PMS7003;20067;48.764;9.176;2024-03-02T07:58:51;23.00;18.50;10.00
26185;PMS7003;20067;48.764;9.176;2024-03-02T08:01:17;21.00;19.00;10.00
26185;PMS7003;20067;48.764;9.176;2024-03-02T08:03:43;18.00;16.50;8.00
26185;PMS7003;20067;48.764;9.176;2024-03-02T08:06:16;20.25;19.25;11.00
26185;PMS7003;20067;48.764;9.176;2024-03-02T08:08:42;26.50;20.50;11.00
26185;PMS7003;20067;48.764;9.176;2024-03-02T08:11:08;21.00;18.75;8.75
26185;PMS7003;20067;48.764;9.176;2024-03-02T08:13:33;23.00;19.00;9.00
26185;PMS7003;20067;48.764;9.176;2024-03-02T08:16:00;17.25;16.75;9.75
26185;PMS7003;20067;48.764;9.176;2024-03-02T08:18:28;21.00;13.25;6.50
26185;PMS7003;20067;48.764;9.176;2024-03-02T08:20:53;21.50;19.75;9.00
26185;PMS7003;20067;48.764;9.176;2024-03-02T08:23:19;18.25;15.00;8.50
26185;PMS7003;20067;48.764;9.176;2024-03-02T08:25:45;17.00;16.00;9.00
26185;PMS7003;20067;48.764;9.176;2024-03-02T08:28:12;20.50;17.00;9.00
26185;PMS7003;20067;48.764;9.176;2024-03-02T08:30:37;24.25;19.50;10.50
26185;PMS7003;20067;48.764;9.176;2024-03-02T08:33:03;19.00;17.75;9.00
26185;PMS7003;20067;48.764;9.176;2024-03-02T08:35:30;21.25;17.50;9.50
26185;PMS7003;20067;48.764;9.176;2024-03-02T08:38:00;19.75;19.00;10.00
26185;PMS7003;20067;48.764;9.176;2024-03-02T08:40:27;21.00;17.00;8.50
26185;PMS7003;20067;48.764;9.176;2024-03-02T08:42:53;18.75;14.50;7.75
26185;PMS7003;20067;48.764;9.176;2024-03-02T08:45:19;13.50;13.50;7.00
26185;PMS7003;20067;48.764;9.176;2024-03-02T08:47:46;14.75;13.25;7.25
26185;PMS7003;20067;48.764;9.176;2024-03-02T08:50:12;15.75;14.00;7.25
26185;PMS7003;20067;48.764;9.176;2024-03-02T08:52:38;18.00;16.00;7.25
26185;PMS7003;20067;48.764;9.176;2024-03-02T08:55:04;18.25;14.00;8.00
26185;PMS7003;20067;48.764;9.176;2024-03-02T08:57:30;12.00;12.00;6.00
26185;PMS7003;20067;48.764;9.176;2024-03-02T08:59:56;15.50;13.50;6.50
26185;PMS7003;20067;48.764;9.176;2024-03-02T09:02:22;16.25;14.50;8.25
26185;PMS7003;20067;48.764;9.176;2024-03-02T09:04:49;17.00;14.00;6.50
26185;PMS7003;20067;48.764;9.176;2024-03-02T09:07:14;14.00;13.00;6.00
26185;PMS7003;20067;48.764;9.176;2024-03-02T09:09:41;14.00;14.00;7.00
26185;PMS7003;20067;48.764;9.176;2024-03-02T09:12:06;14.00;13.50;7.00
26185;PMS7003;20067;48.764;9.176;2024-03-02T09:14:32;11.50;11.00;6.75
26185;PMS7003;20067;48.764;9.176;2024-03-02T09:16:59;14.50;12.50;6.75
26185;PMS7003;20067;48.764;9.176;2024-03-02T09:19:24;15.75;15.00;7.25
26185;PMS7003;20067;48.764;9.176;2024-03-02T09:21:50;16.50;12.25;6.00
26185;PMS7003;20067;48.764;9.176;2024-03-02T09:24:16;14.75;12.25;7.00
26185;PMS7003;20067;48.764;9.176;2024-03-02T09:26:43;14.25;13.25;6.25
26185;PMS7003;20067;48.764;9.176;2024-03-02T09:29:08;14.25;12.75;6.50
26185;PMS7003;20067;48.764;9.176;2024-03-02T09:31:38;17.00;15.00;6.00
26185;PMS7003;20067;48.764;9.176;2024-03-02T09:34:07;13.25;12.50;6.00
26185;PMS7003;20067;48.764;9.176;2024-03-02T09:36:33;13.75;13.25;6.00
26185;PMS7003;20067;48.764;9.176;2024-03-02T09:38:59;13.25;13.25;6.75
26185;PMS7003;20067;48.764;9.176;2024-03-02T09:41:24;13.00;12.50;6.00
26185;PMS7003;20067;48.764;9.176;2024-03-02T09:43:50;17.00;14.75;9.00
26185;PMS7003;20067;48.764;9.176;2024-03-02T09:46:16;13.75;13.50;7.00
26185;PMS7003;20067;48.764;9.176;2024-03-02T09:48:44;14.75;14.00;7.00
26185;PMS7003;20067;48.764;9.176;2024-03-02T09:51:10;15.25;13.50;7.25
26185;PMS7003;20067;48.764;9.176;2024-03-02T09:53:36;14.50;12.50;6.00
26185;PMS7003;20067;48.764;9.176;2024-03-02T09:56:02;13.00;11.50;5.50
26185;PMS7003;20067;48.764;9.176;2024-03-02T09:58:29;11.50;10.75;4.00
26185;PMS7003;20067;48.764;9.176;2024-03-02T10:00:55;11.00;9.00;4.00
26185;PMS7003;20067;48.764;9.176;2024-03-02T10:03:21;12.50;11.00;6.50
26185;PMS7003;20067;48.764;9.176;2024-03-02T10:05:49;12.25;10.00;4.25
26185;PMS7003;20067;48.764;9.176;2024-03-02T10:08:15;12.50;11.75;8.00
26185;PMS7003;20067;48.764;9.176;2024-03-02T10:10:41;9.25;9.00;4.00
26185;PMS7003;20067;48.764;9.176;2024-03-02T10:13:09;13.25;11.00;6.00
26185;PMS7003;20067;48.764;9.176;2024-03-02T10:15:36;12.75;12.75;7.00
26185;PMS7003;20067;48.764;9.176;2024-03-02T10:18:03;10.50;10.00;5.75
26185;PMS7003;20067;48.764;9.176;2024-03-02T10:20:29;12.50;10.25;6.25
26185;PMS7003;20067;48.764;9.176;2024-03-02T10:23:10;10.75;8.75;5.00
26185;PMS7003;20067;48.764;9.176;2024-03-02T10:25:37;10.50;10.25;5.00
26185;PMS7003;20067;48.764;9.176;2024-03-02T10:28:03;7.60;7.60;3.00
26185;PMS7003;20067;48.764;9.176;2024-03-02T10:30:33;12.00;11.00;6.00
26185;PMS7003;20067;48.764;9.176;2024-03-02T10:33:00;16.00;11.00;6.00
26185;PMS7003;20067;48.764;9.176;2024-03-02T10:35:30;9.00;8.00;3.00
26185;PMS7003;20067;48.764;9.176;2024-03-02T10:37:58;8.25;8.25;4.00
26185;PMS7003;20067;48.764;9.176;2024-03-02T10:40:26;10.75;9.50;3.00
26185;PMS7003;20067;48.764;9.176;2024-03-02T10:42:52;13.00;11.00;4.00
26185;PMS7003;20067;48.764;9.176;2024-03-02T10:45:19;12.00;12.00;6.00
26185;PMS7003;20067;48.764;9.176;2024-03-02T10:47:48;11.25;9.00;6.00
26185;PMS7003;20067;48.764;9.176;2024-03-02T10:50:15;12.25;12.00;6.00
26185;PMS7003;20067;48.764;9.176;2024-03-02T10:52:41;10.75;9.00;4.00
26185;PMS7003;20067;48.764;9.176;2024-03-02T10:55:07;12.00;9.00;4.00
26185;PMS7003;20067;48.764;9.176;2024-03-02T11:00:11;11.25;11.00;6.50
26185;PMS7003;20067;48.764;9.176;2024-03-02T11:03:24;13.00;12.00;6.25
26185;PMS7003;20067;48.764;9.176;2024-03-02T11:05:36;11.00;11.00;5.75
26185;PMS7003;20067;48.764;9.176;2024-03-02T11:08:07;10.75;10.00;5.75
26185;PMS7003;20067;48.764;9.176;2024-03-02T11:10:38;11.50;11.50;7.00
26185;PMS7003;20067;48.764;9.176;2024-03-02T11:13:10;10.00;10.00;5.00
26185;PMS7003;20067;48.764;9.176;2024-03-02T11:15:37;11.00;8.25;4.00
26185;PMS7003;20067;48.764;9.176;2024-03-02T11:18:05;8.25;8.25;3.25
26185;PMS7003;20067;48.764;9.176;2024-03-02T11:20:35;7.50;7.50;2.50
26185;PMS7003;20067;48.764;9.176;2024-03-02T11:23:06;8.75;7.75;3.00
26185;PMS7003;20067;48.764;9.176;2024-03-02T11:25:33;5.25;5.25;2.00
26185;PMS7003;20067;48.764;9.176;2024-03-02T11:28:00;4.50;4.50;1.00
26185;PMS7003;20067;48.764;9.176;2024-03-02T11:32:59;3.00;3.00;1.00
26185;PMS7003;20067;48.764;9.176;2024-03-02T11:35:25;4.00;4.00;0.00
26185;PMS7003;20067;48.764;9.176;2024-03-02T11:37:51;5.00;5.00;1.00
26185;PMS7003;20067;48.764;9.176;2024-03-02T11:40:36;3.00;3.00;0.20
26185;PMS7003;20067;48.764;9.176;2024-03-02T11:43:04;3.00;3.00;0.00
26185;PMS7003;20067;48.764;9.176;2024-03-02T11:45:31;3.00;3.00;0.00
26185;PMS7003;20067;48.764;9.176;2024-03-02T11:47:58;3.00;3.00;1.00
26185;PMS7003;20067;48.764;9.176;2024-03-02T11:50:33;5.00;5.00;1.00
26185;PMS7003;20067;48.764;9.176;2024-03-02T11:53:06;3.00;3.00;0.80
26185;PMS7003;20067;48.764;9.176;2024-03-02T11:55:37;3.50;3.50;1.00
26185;PMS7003;20067;48.764;9.176;2024-03-02T11:58:04;6.00;6.00;1.00
26185;PMS7003;20067;48.764;9.176;2024-03-02T12:00:31;9.00;6.25;3.00
26185;PMS7003;20067;48.764;9.176;2024-03-02T12:03:06;4.00;4.00;1.00
26185;PMS7003;20067;48.764;9.176;2024-03-02T12:05:33;20.75;20.75;15.25
26185;PMS7003;20067;48.764;9.176;2024-03-02T12:08:00;4.25;4.00;1.00
26185;PMS7003;20067;48.764;9.176;2024-03-02T12:10:29;5.00;5.00;1.25
26185;PMS7003;20067;48.764;9.176;2024-03-02T12:12:59;3.50;3.50;1.00
26185;PMS7003;20067;48.764;9.176;2024-03-02T12:15:26;6.00;6.00;2.00
26185;PMS7003;20067;48.764;9.176;2024-03-02T12:17:54;4.00;4.00;1.00
26185;PMS7003;20067;48.764;9.176;2024-03-02T12:20:20;5.00;4.00;1.00
26185;PMS7003;20067;48.764;9.176;2024-03-02T12:22:48;5.00;5.00;1.00
26185;PMS7003;20067;48.764;9.176;2024-03-02T12:25:23;5.75;5.00;1.00
26185;PMS7003;20067;48.764;9.176;2024-03-02T12:27:50;4.25;4.25;0.75
26185;PMS7003;20067;48.764;9.176;2024-03-02T12:30:18;5.25;4.50;1.00
26185;PMS7003;20067;48.764;9.176;2024-03-02T12:32:44;4.00;4.00;0.00
26185;PMS7003;20067;48.764;9.176;2024-03-02T12:35:13;5.00;5.00;1.00
26185;PMS7003;20067;48.764;9.176;2024-03-02T12:37:45;4.00;4.00;1.00
26185;PMS7003;20067;48.764;9.176;2024-03-02T12:40:15;5.00;4.00;0.00
26185;PMS7003;20067;48.764;9.176;2024-03-02T12:42:45;4.00;4.00;1.00
26185;PMS7003;20067;48.764;9.176;2024-03-02T12:45:12;5.00;5.00;2.00
26185;PMS7003;20067;48.764;9.176;2024-03-02T12:47:39;6.00;6.00;2.00
26185;PMS7003;20067;48.764;9.176;2024-03-02T12:50:06;5.00;5.00;1.25
26185;PMS7003;20067;48.764;9.176;2024-03-02T12:52:32;3.75;3.50;0.50
26185;PMS7003;20067;48.764;9.176;2024-03-02T12:54:59;4.00;4.00;1.00
26185;PMS7003;20067;48.764;9.176;2024-03-02T12:57:30;4.00;4.00;0.00
26185;PMS7003;20067;48.764;9.176;2024-03-02T13:00:00;4.25;4.00;0.00
26185;PMS7003;20067;48.764;9.176;2024-03-02T13:02:33;5.75;5.75;2.00
26185;PMS7003;20067;48.764;9.176;2024-03-02T13:05:00;7.00;6.00;2.00
26185;PMS7003;20067;48.764;9.176;2024-03-02T13:07:26;4.00;4.00;0.25
26185;PMS7003;20067;48.764;9.176;2024-03-02T13:09:52;4.50;4.00;1.00
26185;PMS7003;20067;48.764;9.176;2024-03-02T13:12:22;5.25;4.00;1.00
26185;PMS7003;20067;48.764;9.176;2024-03-02T13:14:52;7.50;4.75;1.00
26185;PMS7003;20067;48.764;9.176;2024-03-02T13:17:18;5.75;4.75;1.50
26185;PMS7003;20067;48.764;9.176;2024-03-02T13:19:56;8.00;5.50;2.00
26185;PMS7003;20067;48.764;9.176;2024-03-02T13:22:24;5.00;5.00;1.00
26185;PMS7003;20067;48.764;9.176;2024-03-02T13:24:50;4.00;4.00;1.00
26185;PMS7003;20067;48.764;9.176;2024-03-02T13:27:17;5.00;5.00;2.00
26185;PMS7003;20067;48.764;9.176;2024-03-02T13:29:46;5.75;5.75;3.50
26185;PMS7003;20067;48.764;9.176;2024-03-02T13:32:13;5.00;5.00;1.00
26185;PMS7003;20067;48.764;9.176;2024-03-02T13:34:39;5.75;5.00;1.00
26185;PMS7003;20067;48.764;9.176;2024-03-02T13:37:04;5.00;5.00;1.75
26185;PMS7003;20067;48.764;9.176;2024-03-02T13:39:31;7.00;7.00;2.00
26185;PMS7003;20067;48.764;9.176;2024-03-02T13:41:59;5.75;5.75;2.00
26185;PMS7003;20067;48.764;9.176;2024-03-02T13:44:30;5.00;5.00;1.00
26185;PMS7003;20067;48.764;9.176;2024-03-02T13:46:56;9.25;7.00;2.50
26185;PMS7003;20067;48.764;9.176;2024-03-02T13:49:23;6.00;5.00;1.50
26185;PMS7003;20067;48.764;9.176;2024-03-02T13:51:49;5.00;5.00;1.00
26185;PMS7003;20067;48.764;9.176;2024-03-02T13:54:15;5.75;4.50;1.00
26185;PMS7003;20067;48.764;9.176;2024-03-02T13:56:41;4.50;4.00;1.00
26185;PMS7003;20067;48.764;9.176;2024-03-02T13:59:07;4.25;4.25;1.00
26185;PMS7003;20067;48.764;9.176;2024-03-02T14:01:33;5.00;4.00;1.00
26185;PMS7003;20067;48.764;9.176;2024-03-02T14:03:59;4.00;4.00;0.00
26185;PMS7003;20067;48.764;9.176;2024-03-02T14:06:24;5.50;5.00;0.75
26185;PMS7003;20067;48.764;9.176;2024-03-02T14:08:53;5.00;4.75;1.00
26185;PMS7003;20067;48.764;9.176;2024-03-02T14:11:19;4.00;4.00;1.00
26185;PMS7003;20067;48.764;9.176;2024-03-02T14:13:44;4.75;4.75;0.75